sensor_id;sensor_type;location;lat;lon;timestamp;temperature;humidity
9519;DHT22;4797;50.220;8.782;2023-10-19T14:05:20;16.20;99.80
9519;DHT22;4797;50.220;8.782;2023-10-19T14:07:51;16.10;99.80
9519;DHT22;4797;50.220;8.782;2023-10-19T14:10:19;16.10;99.80
9519;DHT22;4797;50.220;8.782;2023-10-19T14:12:48;16.00;99.80
9519;DHT22;4797;50.220;8.782;2023-10-19T14:15:19;16.00;99.80
9519;DHT22;4797;50.220;8.782;2023-10-19T14:17:48;16.00;99.80
9519;DHT22;4797;50.220;8.782;2023-10-19T14:20:21;15.90;99.80
9519;DHT22;4797;50.220;8.782;2023-10-19T14:22:50;15.90;99.80
9519;DHT22;4797;50.220;8.782;2023-10-19T14:25:20;15.80;99.80
9519;DHT22;4797;50.220;8.782;2023-10-19T14:27:51;15.80;99.80
9519;DHT22;4797;50.220;8.782;2023-10-19T14:30:22;15.80;99.80
9519;DHT22;4797;50.220;8.782;2023-10-19T14:50:51;15.50;99.80
9519;DHT22;4797;50.220;8.782;2023-10-19T14:55:15;15.50;99.80
9519;DHT22;4797;50.220;8.782;2023-10-19T14:58:17;15.60;99.80
9519;DHT22;4797;50.220;8.782;2023-10-19T15:01:36;15.60;99.80
9519;DHT22;4797;50.220;8.782;2023-10-19T15:04:33;15.60;99.80
9519;DHT22;4797;50.220;8.782;2023-10-19T15:07:39;15.70;99.80
9519;DHT22;4797;50.220;8.782;2023-10-19T15:10:12;15.70;99.80
9519;DHT22;4797;50.220;8.782;2023-10-19T15:12:44;15.80;99.80
9519;DHT22;4797;50.220;8.782;2023-10-19T15:15:18;15.80;99.80
9519;DHT22;4797;50.220;8.782;2023-10-19T15:17:47;15.80;99.80
9519;DHT22;4797;50.220;8.782;2023-10-19T15:20:18;15.90;99.80
9519;DHT22;4797;50.220;8.782;2023-10-19T15:22:47;15.90;99.80
9519;DHT22;4797;50.220;8.782;2023-10-19T15:25:16;15.90;99.80
9519;DHT22;4797;50.220;8.782;2023-10-19T15:27:47;15.80;99.80
9519;DHT22;4797;50.220;8.782;2023-10-19T15:30:16;15.80;99.80
9519;DHT22;4797;50.220;8.782;2023-10-19T15:32:44;15.80;99.80
9519;DHT22;4797;50.220;8.782;2023-10-19T15:35:14;15.80;99.80
9519;DHT22;4797;50.220;8.782;2023-10-19T15:37:49;15.80;99.80
9519;DHT22;4797;50.220;8.782;2023-10-19T15:40:21;15.70;99.80
9519;DHT22;4797;50.220;8.782;2023-10-19T15:42:49;15.70;99.80
9519;DHT22;4797;50.220;8.782;2023-10-19T15:45:20;15.70;99.80
9519;DHT22;4797;50.220;8.782;2023-10-19T15:47:51;15.70;99.80
9519;DHT22;4797;50.220;8.782;2023-10-19T15:50:20;15.60;99.80
9519;DHT22;4797;50.220;8.782;2023-10-19T15:52:50;15.60;99.80
9519;DHT22;4797;50.220;8.782;2023-10-19T15:55:19;15.70;99.80
9519;DHT22;4797;50.220;8.782;2023-10-19T15:57:49;15.70;99.80
9519;DHT22;4797;50.220;8.782;2023-10-19T16:00:18;15.70;99.80
9519;DHT22;4797;50.220;8.782;2023-10-19T16:02:47;15.70;99.80
9519;DHT22;4797;50.220;8.782;2023-10-19T16:05:16;15.70;99.80
9519;DHT22;4797;50.220;8.782;2023-10-19T16:07:44;15.70;99.80
9519;DHT22;4797;50.220;8.782;2023-10-19T16:10:14;15.60;99.80
9519;DHT22;4797;50.220;8.782;2023-10-19T16:12:43;15.50;99.80
9519;DHT22;4797;50.220;8.782;2023-10-19T16:15:14;15.50;99.80
9519;DHT22;4797;50.220;8.782;2023-10-19T16:17:43;15.40;99.80
9519;DHT22;4797;50.220;8.782;2023-10-19T16:20:12;15.30;99.80
9519;DHT22;4797;50.220;8.782;2023-10-19T16:22:41;15.30;99.80
9519;DHT22;4797;50.220;8.782;2023-10-19T16:25:10;15.30;99.80
9519;DHT22;4797;50.220;8.782;2023-10-19T16:27:39;15.30;99.80
9519;DHT22;4797;50.220;8.782;2023-10-19T16:30:11;15.30;99.80
9519;DHT22;4797;50.220;8.782;2023-10-19T16:32:40;15.20;99.80
9519;DHT22;4797;50.220;8.782;2023-10-19T16:35:09;15.20;99.80
9519;DHT22;4797;50.220;8.782;2023-10-19T16:37:37;15.20;99.80
9519;DHT22;4797;50.220;8.782;2023-10-19T16:40:06;15.10;99.80
9519;DHT22;4797;50.220;8.782;2023-10-19T16:42:36;15.10;99.80
9519;DHT22;4797;50.220;8.782;2023-10-19T16:45:07;15.10;99.80
9519;DHT22;4797;50.220;8.782;2023-10-19T16:47:37;15.10;99.80
9519;DHT22;4797;50.220;8.782;2023-10-19T16:50:08;15.10;99.80
9519;DHT22;4797;50.220;8.782;2023-10-19T16:52:38;15.10;99.80
9519;DHT22;4797;50.220;8.782;2023-10-19T16:55:08;15.00;99.80
9519;DHT22;4797;50.220;8.782;2023-10-19T16:57:37;15.00;99.80
9519;DHT22;4797;50.220;8.782;2023-10-19T17:00:07;14.90;99.80
9519;DHT22;4797;50.220;8.782;2023-10-19T17:02:40;14.90;99.80
9519;DHT22;4797;50.220;8.782;2023-10-19T17:05:08;14.90;99.80
9519;DHT22;4797;50.220;8.782;2023-10-19T17:07:37;14.80;99.80
9519;DHT22;4797;50.220;8.782;2023-10-19T17:10:06;14.80;99.80
9519;DHT22;4797;50.220;8.782;2023-10-19T17:12:34;14.80;99.80
9519;DHT22;4797;50.220;8.782;2023-10-19T17:15:04;14.80;99.80
9519;DHT22;4797;50.220;8.782;2023-10-19T17:17:33;14.80;99.80
9519;DHT22;4797;50.220;8.782;2023-10-19T17:20:01;14.80;99.80
9519;DHT22;4797;50.220;8.782;2023-10-19T17:22:29;14.90;99.80
9519;DHT22;4797;50.220;8.782;2023-10-19T17:24:58;14.90;99.80
9519;DHT22;4797;50.220;8.782;2023-10-19T17:27:26;14.90;99.80
9519;DHT22;4797;50.220;8.782;2023-10-19T17:29:54;14.90;99.80
9519;DHT22;4797;50.220;8.782;2023-10-19T17:32:22;14.90;99.80
9519;DHT22;4797;50.220;8.782;2023-10-19T17:34:51;14.90;99.80
9519;DHT22;4797;50.220;8.782;2023-10-19T17:37:19;14.90;99.80
9519;DHT22;4797;50.220;8.782;2023-10-19T17:39:47;14.90;99.80
9519;DHT22;4797;50.220;8.782;2023-10-19T17:42:15;14.90;99.80
9519;DHT22;4797;50.220;8.782;2023-10-19T17:44:44;14.90;99.80
9519;DHT22;4797;50.220;8.782;2023-10-19T17:47:12;14.90;99.80
9519;DHT22;4797;50.220;8.782;2023-10-19T17:49:41;14.90;99.80
9519;DHT22;4797;50.220;8.782;2023-10-19T17:52:10;14.90;99.80
9519;DHT22;4797;50.220;8.782;2023-10-19T17:54:40;14.90;99.80
9519;DHT22;4797;50.220;8.782;2023-10-19T17:57:08;14.90;99.80
9519;DHT22;4797;50.220;8.782;2023-10-19T17:59:36;14.90;99.80
9519;DHT22;4797;50.220;8.782;2023-10-19T18:02:05;14.90;99.80
9519;DHT22;4797;50.220;8.782;2023-10-19T18:04:33;14.90;99.80
9519;DHT22;4797;50.220;8.782;2023-10-19T18:07:02;14.90;99.80
9519;DHT22;4797;50.220;8.782;2023-10-19T18:09:31;14.90;99.80
9519;DHT22;4797;50.220;8.782;2023-10-19T18:11:59;14.90;99.80
9519;DHT22;4797;50.220;8.782;2023-10-19T18:14:27;15.00;99.80
9519;DHT22;4797;50.220;8.782;2023-10-19T18:16:55;15.10;99.80
9519;DHT22;4797;50.220;8.782;2023-10-19T18:19:24;15.10;99.80
9519;DHT22;4797;50.220;8.782;2023-10-19T18:21:51;15.10;99.80
9519;DHT22;4797;50.220;8.782;2023-10-19T18:24:21;15.10;99.80
9519;DHT22;4797;50.220;8.782;2023-10-19T18:26:50;15.10;99.80
9519;DHT22;4797;50.220;8.782;2023-10-19T18:29:18;15.10;99.80
9519;DHT22;4797;50.220;8.782;2023-10-19T18:31:46;15.20;99.80
9519;DHT22;4797;50.220;8.782;2023-10-19T18:34:14;15.20;99.80
9519;DHT22;4797;50.220;8.782;2023-10-19T18:36:43;15.30;99.80
9519;DHT22;4797;50.220;8.782;2023-10-19T18:39:11;15.30;99.80
9519;DHT22;4797;50.220;8.782;2023-10-19T18:41:42;15.40;99.80
9519;DHT22;4797;50.220;8.782;2023-10-19T18:44:12;15.40;99.80
9519;DHT22;4797;50.220;8.782;2023-10-19T18:46:40;15.40;99.80
9519;DHT22;4797;50.220;8.782;2023-10-19T18:49:08;15.30;99.80
9519;DHT22;4797;50.220;8.782;2023-10-19T18:51:37;15.30;99.80
9519;DHT22;4797;50.220;8.782;2023-10-19T18:54:07;15.30;99.80
9519;DHT22;4797;50.220;8.782;2023-10-19T18:56:35;15.20;99.80
9519;DHT22;4797;50.220;8.782;2023-10-19T18:59:04;15.20;99.80
9519;DHT22;4797;50.220;8.782;2023-10-19T19:01:34;15.20;99.80
9519;DHT22;4797;50.220;8.782;2023-10-19T19:04:02;15.20;99.80
9519;DHT22;4797;50.220;8.782;2023-10-19T19:06:33;15.20;99.80
9519;DHT22;4797;50.220;8.782;2023-10-19T19:09:01;15.20;99.80
9519;DHT22;4797;50.220;8.782;2023-10-19T19:11:30;15.20;99.80
9519;DHT22;4797;50.220;8.782;2023-10-19T19:13:58;15.30;99.80
9519;DHT22;4797;50.220;8.782;2023-10-19T19:16:40;15.30;99.80
9519;DHT22;4797;50.220;8.782;2023-10-19T19:19:13;15.30;99.80
9519;DHT22;4797;50.220;8.782;2023-10-19T19:21:41;15.30;99.80
9519;DHT22;4797;50.220;8.782;2023-10-19T19:24:09;15.30;99.80
9519;DHT22;4797;50.220;8.782;2023-10-19T19:26:37;15.20;99.80
9519;DHT22;4797;50.220;8.782;2023-10-19T19:29:05;15.20;99.80
9519;DHT22;4797;50.220;8.782;2023-10-19T19:31:33;15.20;99.80
9519;DHT22;4797;50.220;8.782;2023-10-19T19:34:03;15.20;99.80
9519;DHT22;4797;50.220;8.782;2023-10-19T19:36:30;15.10;99.80
9519;DHT22;4797;50.220;8.782;2023-10-19T19:38:58;15.10;99.80
9519;DHT22;4797;50.220;8.782;2023-10-19T19:41:27;15.10;99.80
9519;DHT22;4797;50.220;8.782;2023-10-19T19:43:56;15.10;99.80
9519;DHT22;4797;50.220;8.782;2023-10-19T19:46:25;15.10;99.80
9519;DHT22;4797;50.220;8.782;2023-10-19T19:48:53;15.00;99.80
9519;DHT22;4797;50.220;8.782;2023-10-19T19:51:22;15.00;99.80
9519;DHT22;4797;50.220;8.782;2023-10-19T19:53:50;15.00;99.80
9519;DHT22;4797;50.220;8.782;2023-10-19T19:56:18;15.00;99.80
9519;DHT22;4797;50.220;8.782;2023-10-19T19:58:48;14.90;99.80
9519;DHT22;4797;50.220;8.782;2023-10-19T20:01:16;14.90;99.80
9519;DHT22;4797;50.220;8.782;2023-10-19T20:03:44;14.90;99.80
9519;DHT22;4797;50.220;8.782;2023-10-19T20:06:12;14.90;99.80
9519;DHT22;4797;50.220;8.782;2023-10-19T20:08:43;14.80;99.80
9519;DHT22;4797;50.220;8.782;2023-10-19T20:11:17;14.90;99.80
9519;DHT22;4797;50.220;8.782;2023-10-19T20:13:46;14.90;99.80
9519;DHT22;4797;50.220;8.782;2023-10-19T20:16:14;14.80;99.80
9519;DHT22;4797;50.220;8.782;2023-10-19T20:18:42;14.80;99.80
9519;DHT22;4797;50.220;8.782;2023-10-19T20:21:13;14.80;99.80
9519;DHT22;4797;50.220;8.782;2023-10-19T20:23:44;14.80;99.80
9519;DHT22;4797;50.220;8.782;2023-10-19T20:26:13;14.70;99.80
9519;DHT22;4797;50.220;8.782;2023-10-19T20:28:42;14.70;99.80
9519;DHT22;4797;50.220;8.782;2023-10-19T20:31:10;14.70;99.80
9519;DHT22;4797;50.220;8.782;2023-10-19T20:33:38;14.70;99.80
9519;DHT22;4797;50.220;8.782;2023-10-19T20:36:06;14.60;99.80
9519;DHT22;4797;50.220;8.782;2023-10-19T20:38:34;14.70;99.80
9519;DHT22;4797;50.220;8.782;2023-10-19T20:41:04;14.60;99.80
9519;DHT22;4797;50.220;8.782;2023-10-19T20:43:32;14.70;99.80
9519;DHT22;4797;50.220;8.782;2023-10-19T20:46:03;14.60;99.80
9519;DHT22;4797;50.220;8.782;2023-10-19T20:48:30;14.60;99.80
9519;DHT22;4797;50.220;8.782;2023-10-19T20:51:01;14.60;99.80
9519;DHT22;4797;50.220;8.782;2023-10-19T20:53:32;14.60;99.80
9519;DHT22;4797;50.220;8.782;2023-10-19T20:56:00;14.60;99.80
9519;DHT22;4797;50.220;8.782;2023-10-19T20:58:31;14.60;99.80
9519;DHT22;4797;50.220;8.782;2023-10-19T21:01:04;14.60;99.80
9519;DHT22;4797;50.220;8.782;2023-10-19T21:03:32;14.50;99.80
9519;DHT22;4797;50.220;8.782;2023-10-19T21:06:09;14.50;99.80
9519;DHT22;4797;50.220;8.782;2023-10-19T21:08:37;14.50;99.80
9519;DHT22;4797;50.220;8.782;2023-10-19T21:11:13;14.50;99.80
9519;DHT22;4797;50.220;8.782;2023-10-19T21:13:42;14.50;99.80
9519;DHT22;4797;50.220;8.782;2023-10-19T21:16:10;14.50;99.80
9519;DHT22;4797;50.220;8.782;2023-10-19T21:18:39;14.50;99.80
9519;DHT22;4797;50.220;8.782;2023-10-19T21:21:09;14.60;99.80
9519;DHT22;4797;50.220;8.782;2023-10-19T21:23:37;14.60;99.80
9519;DHT22;4797;50.220;8.782;2023-10-19T21:26:05;14.60;99.80
9519;DHT22;4797;50.220;8.782;2023-10-19T21:28:35;14.60;99.80
9519;DHT22;4797;50.220;8.782;2023-10-19T21:31:04;14.60;99.80
9519;DHT22;4797;50.220;8.782;2023-10-19T21:33:32;14.60;99.80
9519;DHT22;4797;50.220;8.782;2023-10-19T21:36:03;14.70;99.80
9519;DHT22;4797;50.220;8.782;2023-10-19T21:38:32;14.70;99.80
9519;DHT22;4797;50.220;8.782;2023-10-19T21:41:00;14.70;99.80
9519;DHT22;4797;50.220;8.782;2023-10-19T21:43:28;14.70;99.80
9519;DHT22;4797;50.220;8.782;2023-10-19T21:45:56;14.70;99.80
9519;DHT22;4797;50.220;8.782;2023-10-19T21:48:25;14.70;99.80
9519;DHT22;4797;50.220;8.782;2023-10-19T21:50:56;14.70;99.80
9519;DHT22;4797;50.220;8.782;2023-10-19T21:53:24;14.70;99.80
9519;DHT22;4797;50.220;8.782;2023-10-19T21:55:52;14.70;99.80
9519;DHT22;4797;50.220;8.782;2023-10-19T21:58:21;14.80;99.80
9519;DHT22;4797;50.220;8.782;2023-10-19T22:00:49;14.80;99.80
9519;DHT22;4797;50.220;8.782;2023-10-19T22:03:27;14.80;99.80
9519;DHT22;4797;50.220;8.782;2023-10-19T22:05:55;14.80;99.80
9519;DHT22;4797;50.220;8.782;2023-10-19T22:08:23;14.80;99.80
9519;DHT22;4797;50.220;8.782;2023-10-19T22:10:51;14.80;99.80
9519;DHT22;4797;50.220;8.782;2023-10-19T22:13:19;14.80;99.80
9519;DHT22;4797;50.220;8.782;2023-10-19T22:15:47;14.70;99.80
9519;DHT22;4797;50.220;8.782;2023-10-19T22:18:15;14.80;99.80
9519;DHT22;4797;50.220;8.782;2023-10-19T22:20:46;14.70;99.80
9519;DHT22;4797;50.220;8.782;2023-10-19T22:23:14;14.70;99.80
9519;DHT22;4797;50.220;8.782;2023-10-19T22:25:42;14.70;99.80
9519;DHT22;4797;50.220;8.782;2023-10-19T22:28:10;14.70;99.80
9519;DHT22;4797;50.220;8.782;2023-10-19T22:30:39;14.70;99.80
9519;DHT22;4797;50.220;8.782;2023-10-19T22:33:08;14.70;99.80
9519;DHT22;4797;50.220;8.782;2023-10-19T22:35:36;14.80;99.80
9519;DHT22;4797;50.220;8.782;2023-10-19T22:38:05;14.80;99.80
9519;DHT22;4797;50.220;8.782;2023-10-19T22:40:34;14.70;99.80
9519;DHT22;4797;50.220;8.782;2023-10-19T22:43:02;14.70;99.80
9519;DHT22;4797;50.220;8.782;2023-10-19T22:45:30;14.70;99.80
9519;DHT22;4797;50.220;8.782;2023-10-19T22:47:58;14.70;99.80
9519;DHT22;4797;50.220;8.782;2023-10-19T22:50:29;14.70;99.80
9519;DHT22;4797;50.220;8.782;2023-10-19T22:53:00;14.70;99.80
9519;DHT22;4797;50.220;8.782;2023-10-19T22:55:29;14.70;99.80
9519;DHT22;4797;50.220;8.782;2023-10-19T22:57:57;14.60;99.80
9519;DHT22;4797;50.220;8.782;2023-10-19T23:00:25;14.60;99.80
9519;DHT22;4797;50.220;8.782;2023-10-19T23:02:54;14.60;99.80
9519;DHT22;4797;50.220;8.782;2023-10-19T23:05:22;14.60;99.80
9519;DHT22;4797;50.220;8.782;2023-10-19T23:07:50;14.50;99.80
9519;DHT22;4797;50.220;8.782;2023-10-19T23:10:19;14.50;99.80
9519;DHT22;4797;50.220;8.782;2023-10-19T23:12:55;14.50;99.80
9519;DHT22;4797;50.220;8.782;2023-10-19T23:15:24;14.50;99.80
9519;DHT22;4797;50.220;8.782;2023-10-19T23:18:04;14.60;99.80
9519;DHT22;4797;50.220;8.782;2023-10-19T23:20:33;14.60;99.80
9519;DHT22;4797;50.220;8.782;2023-10-19T23:23:01;14.60;99.80
9519;DHT22;4797;50.220;8.782;2023-10-19T23:25:32;14.60;99.80
9519;DHT22;4797;50.220;8.782;2023-10-19T23:28:02;14.60;99.80
9519;DHT22;4797;50.220;8.782;2023-10-19T23:30:32;14.60;99.80
9519;DHT22;4797;50.220;8.782;2023-10-19T23:33:02;14.60;99.80
9519;DHT22;4797;50.220;8.782;2023-10-19T23:35:30;14.60;99.80
9519;DHT22;4797;50.220;8.782;2023-10-19T23:37:58;14.60;99.80
9519;DHT22;4797;50.220;8.782;2023-10-19T23:40:27;14.60;99.80
9519;DHT22;4797;50.220;8.782;2023-10-19T23:42:55;14.60;99.80
9519;DHT22;4797;50.220;8.782;2023-10-19T23:45:24;14.60;99.80
9519;DHT22;4797;50.220;8.782;2023-10-19T23:47:52;14.60;99.80
9519;DHT22;4797;50.220;8.782;2023-10-19T23:50:21;14.50;99.80
9519;DHT22;4797;50.220;8.782;2023-10-19T23:52:49;14.50;99.80
9519;DHT22;4797;50.220;8.782;2023-10-19T23:55:17;14.50;99.80
9519;DHT22;4797;50.220;8.782;2023-10-19T23:57:46;14.50;99.80
